Time;durP1;ratioP1;P1;durP2;ratioP2;P2;SDS_P1;SDS_P2;PMS_P1;PMS_P2;Temp;Humidity;BMP_temperature;BMP_pressure;BME280_temperature;BME280_humidity;BME280_pressure;Samples;Min_cycle;Max_cycle;Signal;HPM_P1;HPM_P2
2024/04/05 00:00:13;;;;;;;24.83;5.07;;;9.20;99.90;;;;;;5036114;28;20045;-69
2024/04/05 00:02:39;;;;;;;27.63;5.25;;;9.30;99.90;;;;;;5036138;28;20040;-68
2024/04/05 00:05:05;;;;;;;34.78;5.47;;;9.30;99.90;;;;;;5036051;28;20419;-68
2024/04/05 00:07:30;;;;;;;24.83;4.97;;;9.50;99.90;;;;;;5036063;28;20034;-68
2024/04/05 00:09:56;;;;;;;23.55;5.78;;;9.60;99.90;;;;;;5035903;28;20021;-68
2024/04/05 00:12:21;;;;;;;31.98;5.93;;;9.90;99.90;;;;;;5035471;28;20021;-68
2024/04/05 00:14:50;;;;;;;28.77;5.13;;;10.00;99.90;;;;;;5035920;28;20064;-70
2024/04/05 00:17:15;;;;;;;28.98;5.53;;;10.10;99.90;;;;;;5035788;28;20040;-69
2024/04/05 00:19:42;;;;;;;24.73;5.07;;;10.20;99.90;;;;;;5035663;28;20025;-69
2024/04/05 00:22:07;;;;;;;23.85;5.30;;;10.30;99.90;;;;;;5035790;28;20029;-69
2024/04/05 00:24:33;;;;;;;27.83;4.40;;;10.40;99.90;;;;;;5035346;28;20091;-68
2024/04/05 00:26:58;;;;;;;26.35;4.93;;;10.40;99.90;;;;;;5035743;28;20052;-68
2024/04/05 00:29:24;;;;;;;39.08;5.80;;;10.40;99.90;;;;;;5035620;28;20541;-69
2024/04/05 00:31:49;;;;;;;27.48;4.93;;;10.40;99.90;;;;;;5035622;28;20549;-68
2024/04/05 00:34:15;;;;;;;27.65;5.82;;;10.40;99.90;;;;;;5035602;28;20053;-69
2024/04/05 00:36:40;;;;;;;29.90;4.88;;;10.50;99.90;;;;;;5035065;28;20027;-68
2024/04/05 00:39:06;;;;;;;22.80;5.32;;;10.60;99.90;;;;;;5035082;28;20056;-69
2024/04/05 00:41:31;;;;;;;19.10;4.95;;;10.60;99.90;;;;;;5035527;28;20036;-68
2024/04/05 00:43:57;;;;;;;24.25;4.97;;;10.80;99.90;;;;;;5035294;28;20021;-68
2024/04/05 00:46:23;;;;;;;26.38;5.00;;;11.00;99.90;;;;;;5035155;28;20068;-68
2024/04/05 00:48:49;;;;;;;26.08;5.05;;;11.20;99.90;;;;;;5035002;28;20025;-70
2024/04/05 00:51:15;;;;;;;19.40;4.07;;;11.20;99.90;;;;;;5035088;28;20032;-69
2024/04/05 00:53:41;;;;;;;22.38;4.55;;;11.20;99.90;;;;;;5035198;28;20027;-69
2024/04/05 00:56:08;;;;;;;33.47;5.97;;;11.10;99.90;;;;;;5034792;28;20108;-69
2024/04/05 00:58:33;;;;;;;19.23;4.28;;;11.10;99.90;;;;;;5035176;28;20030;-68
2024/04/05 01:00:59;;;;;;;27.77;4.80;;;11.10;99.90;;;;;;5034860;28;20492;-69
2024/04/05 01:03:25;;;;;;;28.75;5.50;;;11.20;99.90;;;;;;5034887;28;20091;-69
2024/04/05 01:05:51;;;;;;;23.58;5.07;;;11.20;99.90;;;;;;5034905;28;20044;-68
2024/04/05 01:08:16;;;;;;;20.67;4.43;;;11.10;99.90;;;;;;5034912;28;20112;-68
2024/04/05 01:10:43;;;;;;;24.85;5.00;;;11.10;99.90;;;;;;5034440;28;20040;-68
2024/04/05 01:13:10;;;;;;;23.10;4.32;;;11.10;99.90;;;;;;5034902;28;20060;-68
2024/04/05 01:15:36;;;;;;;20.48;4.60;;;11.20;99.90;;;;;;5035102;28;20029;-69
2024/04/05 01:18:04;;;;;;;22.58;4.68;;;11.20;99.90;;;;;;5034392;28;20036;-69
2024/04/05 01:20:31;;;;;;;27.83;5.03;;;11.30;99.90;;;;;;5034507;28;20029;-69
2024/04/05 01:23:03;;;;;;;30.52;5.22;;;11.30;99.90;;;;;;5034509;28;20586;-68
2024/04/05 01:25:30;;;;;;;14.10;4.03;;;11.30;99.90;;;;;;5034754;28;20112;-68
2024/04/05 01:27:56;;;;;;;17.15;3.92;;;11.30;99.90;;;;;;5034530;28;20116;-68
2024/04/05 01:30:23;;;;;;;22.30;4.38;;;11.40;99.90;;;;;;5033981;28;20040;-69
2024/04/05 01:32:53;;;;;;;22.70;4.65;;;11.30;99.90;;;;;;5034469;28;20021;-68
2024/04/05 01:35:19;;;;;;;15.23;4.18;;;11.20;99.90;;;;;;5034361;28;20033;-69
2024/04/05 01:37:45;;;;;;;19.27;4.82;;;11.10;99.90;;;;;;5034381;28;20083;-69
2024/04/05 01:40:11;;;;;;;16.35;4.35;;;11.00;99.90;;;;;;5033844;28;20442;-70
2024/04/05 01:42:37;;;;;;;14.80;3.53;;;10.90;99.90;;;;;;5034284;28;20120;-69
2024/04/05 01:45:03;;;;;;;12.75;3.60;;;10.80;99.90;;;;;;5033719;28;20021;-68
2024/04/05 01:47:28;;;;;;;14.10;4.22;;;10.70;99.90;;;;;;5034255;28;20025;-68
2024/04/05 01:49:54;;;;;;;13.63;3.35;;;10.60;99.90;;;;;;5034016;28;20039;-68
2024/04/05 01:52:20;;;;;;;16.02;4.00;;;10.50;99.90;;;;;;5034019;28;20441;-69
2024/04/05 01:54:45;;;;;;;22.67;4.05;;;10.50;99.90;;;;;;5033634;28;20088;-69
2024/04/05 01:57:11;;;;;;;19.08;4.40;;;10.40;99.90;;;;;;5033701;28;20057;-68
2024/04/05 01:59:37;;;;;;;17.98;3.80;;;10.50;99.90;;;;;;5033853;28;20124;-68
2024/04/05 02:02:02;;;;;;;14.15;3.67;;;10.40;99.90;;;;;;5034041;28;20033;-68
2024/04/05 02:04:28;;;;;;;13.02;4.05;;;10.30;99.90;;;;;;5033854;28;20030;-68
2024/04/05 02:06:54;;;;;;;14.02;3.78;;;10.30;99.90;;;;;;5033406;28;20029;-68
2024/04/05 02:09:19;;;;;;;10.38;3.03;;;10.30;99.90;;;;;;5033503;28;20041;-70
2024/04/05 02:11:45;;;;;;;13.68;3.67;;;10.20;99.90;;;;;;5033736;28;20170;-69
2024/04/05 02:14:10;;;;;;;15.05;3.70;;;10.30;99.90;;;;;;5033577;28;20124;-69
2024/04/05 02:16:36;;;;;;;15.70;4.50;;;10.20;99.90;;;;;;5033362;28;20026;-69
2024/04/05 02:19:01;;;;;;;18.98;4.72;;;10.20;99.90;;;;;;5033579;28;20030;-68
2024/04/05 02:21:27;;;;;;;16.48;4.28;;;10.00;99.90;;;;;;5033583;28;20387;-68
2024/04/05 02:23:52;;;;;;;15.20;4.47;;;10.00;99.90;;;;;;5033552;28;20529;-69
2024/04/05 02:26:18;;;;;;;17.73;4.40;;;10.10;99.90;;;;;;5033598;28;20113;-68
2024/04/05 02:28:44;;;;;;;17.73;4.47;;;10.00;99.90;;;;;;5033506;28;20108;-68
2024/04/05 02:31:10;;;;;;;16.20;4.10;;;10.10;99.90;;;;;;5033158;28;20072;-68
2024/04/05 02:33:36;;;;;;;22.52;4.80;;;10.10;99.90;;;;;;5033515;28;20112;-68
2024/04/05 02:36:02;;;;;;;17.73;4.68;;;10.20;99.90;;;;;;5033577;28;20471;-69
2024/04/05 02:38:28;;;;;;;14.50;4.40;;;10.20;99.90;;;;;;5032689;28;20041;-68
2024/04/05 02:40:54;;;;;;;21.23;4.70;;;10.40;99.90;;;;;;5032962;28;20033;-68
2024/04/05 02:43:20;;;;;;;23.40;4.28;;;10.40;99.90;;;;;;5033264;28;20022;-68
2024/04/05 02:45:46;;;;;;;20.23;4.47;;;10.50;99.90;;;;;;5033318;28;20033;-69
2024/04/05 02:48:11;;;;;;;18.83;4.13;;;10.50;99.90;;;;;;5033330;28;20033;-69
2024/04/05 02:50:37;;;;;;;22.38;4.80;;;10.60;99.90;;;;;;5033349;28;20030;-68
2024/04/05 02:53:02;;;;;;;14.32;4.40;;;10.70;99.90;;;;;;5032893;28;20026;-69
2024/04/05 02:55:28;;;;;;;17.10;3.97;;;10.70;99.90;;;;;;5033119;28;20029;-69
2024/04/05 02:57:53;;;;;;;21.67;4.18;;;10.80;99.90;;;;;;5033095;28;20033;-69
2024/04/05 03:00:19;;;;;;;14.75;4.07;;;10.80;99.90;;;;;;5032922;28;20079;-68
2024/04/05 03:02:44;;;;;;;16.98;4.40;;;10.90;99.90;;;;;;5033117;28;20049;-68
2024/04/05 03:05:13;;;;;;;16.70;5.13;;;10.90;99.90;;;;;;5033211;28;20061;-68
2024/04/05 03:07:39;;;;;;;19.77;4.22;;;10.90;99.90;;;;;;5032793;28;20218;-68
2024/04/05 03:10:05;;;;;;;14.00;3.85;;;10.90;99.90;;;;;;5033153;28;20061;-68
2024/04/05 03:12:31;;;;;;;14.52;3.65;;;11.00;99.90;;;;;;5032956;28;20037;-68
2024/04/05 03:14:56;;;;;;;18.45;5.10;;;11.00;99.90;;;;;;5032977;28;20030;-68
2024/04/05 03:17:22;;;;;;;12.77;3.28;;;11.00;99.90;;;;;;5033003;28;20116;-69
2024/04/05 03:19:47;;;;;;;12.63;3.13;;;11.00;99.90;;;;;;5032846;28;20029;-67
2024/04/05 03:22:13;;;;;;;21.25;4.65;;;10.90;99.90;;;;;;5034184;28;20021;-70
2024/04/05 03:24:38;;;;;;;21.85;4.38;;;10.90;99.90;;;;;;5036474;28;20025;-69
2024/04/05 03:27:05;;;;;;;23.65;4.40;;;10.90;99.90;;;;;;5036445;28;20022;-69
2024/04/05 03:29:31;;;;;;;12.02;4.13;;;11.00;99.90;;;;;;5036637;28;20562;-68
2024/04/05 03:31:56;;;;;;;24.13;4.18;;;11.00;99.90;;;;;;5036576;28;20025;-68
2024/04/05 03:34:22;;;;;;;14.85;4.07;;;11.10;99.90;;;;;;5036641;28;20040;-69
2024/04/05 03:36:47;;;;;;;20.00;4.22;;;11.10;99.90;;;;;;5036589;28;20491;-69
2024/04/05 03:39:14;;;;;;;21.30;4.72;;;11.10;99.90;;;;;;5036268;28;20057;-68
2024/04/05 03:41:39;;;;;;;17.40;4.80;;;11.10;99.90;;;;;;5036682;28;20542;-69
2024/04/05 03:44:05;;;;;;;17.75;4.10;;;11.20;99.90;;;;;;5036546;28;20057;-69
2024/04/05 03:46:35;;;;;;;17.30;4.70;;;11.20;99.90;;;;;;5036469;28;20037;-68
2024/04/05 03:49:02;;;;;;;19.17;5.13;;;11.30;99.90;;;;;;5035964;28;20025;-68
2024/04/05 03:51:28;;;;;;;18.98;5.25;;;11.30;99.90;;;;;;5035851;28;20033;-69
2024/04/05 03:53:54;;;;;;;18.42;4.63;;;11.40;99.90;;;;;;5036294;28;20104;-69
2024/04/05 03:56:19;;;;;;;18.38;4.78;;;11.50;99.90;;;;;;5036275;28;20116;-69
2024/04/05 03:58:47;;;;;;;17.52;4.10;;;11.60;99.90;;;;;;5036108;28;20083;-68
2024/04/05 04:01:12;;;;;;;17.95;4.80;;;11.70;99.90;;;;;;5036006;28;20064;-69
2024/04/05 04:03:38;;;;;;;18.25;4.82;;;11.80;99.90;;;;;;5035679;28;20091;-69
2024/04/05 04:06:04;;;;;;;15.15;4.93;;;11.90;99.90;;;;;;5036252;28;20025;-68
2024/04/05 04:08:30;;;;;;;10.43;4.20;;;11.90;99.90;;;;;;5036000;28;20025;-69
2024/04/05 04:10:56;;;;;;;15.63;4.80;;;12.00;99.90;;;;;;5036007;28;20398;-68
2024/04/05 04:13:23;;;;;;;20.98;4.50;;;12.00;99.90;;;;;;5035997;28;20033;-68
2024/04/05 04:15:49;;;;;;;14.68;4.80;;;12.00;99.90;;;;;;5035986;28;20029;-68
2024/04/05 04:18:14;;;;;;;21.33;4.28;;;12.00;99.90;;;;;;5035887;28;20056;-68
2024/04/05 04:20:41;;;;;;;17.13;4.05;;;12.00;99.90;;;;;;5035559;28;20506;-68
2024/04/05 04:23:07;;;;;;;11.93;4.25;;;12.00;99.90;;;;;;5035905;28;20033;-68
2024/04/05 04:25:34;;;;;;;15.00;4.18;;;11.90;99.90;;;;;;5035848;28;20456;-68
2024/04/05 04:27:59;;;;;;;17.05;4.43;;;11.90;99.90;;;;;;5035617;28;20120;-69
2024/04/05 04:30:25;;;;;;;18.05;4.35;;;11.90;99.90;;;;;;5035593;28;20128;-68
2024/04/05 04:32:50;;;;;;;14.02;4.57;;;11.90;99.90;;;;;;5035242;28;20048;-69
2024/04/05 04:35:16;;;;;;;22.88;4.72;;;11.80;99.90;;;;;;5035557;28;20029;-68
2024/04/05 04:37:41;;;;;;;19.33;4.53;;;11.80;99.90;;;;;;5035034;28;20025;-69
2024/04/05 04:40:11;;;;;;;18.60;5.03;;;11.80;99.90;;;;;;5035120;28;20128;-70
2024/04/05 04:42:37;;;;;;;16.42;4.47;;;11.80;99.90;;;;;;5035448;28;20095;-69
2024/04/05 04:45:05;;;;;;;17.83;4.78;;;11.80;99.90;;;;;;5035067;28;20156;-68
2024/04/05 04:47:31;;;;;;;15.88;4.00;;;11.90;99.90;;;;;;5035318;28;20112;-68
2024/04/05 04:49:58;;;;;;;18.35;4.85;;;11.90;99.90;;;;;;5035245;28;20033;-68
2024/04/05 04:52:24;;;;;;;13.93;4.32;;;12.00;99.90;;;;;;5035204;28;20025;-68
2024/04/05 04:54:50;;;;;;;15.80;3.72;;;12.00;99.90;;;;;;5035224;28;20518;-68
2024/04/05 04:57:16;;;;;;;16.58;4.50;;;12.00;99.90;;;;;;5034718;28;20026;-69
2024/04/05 04:59:42;;;;;;;17.42;4.43;;;12.20;99.90;;;;;;5034550;28;20029;-68
2024/04/05 05:02:08;;;;;;;15.93;4.80;;;12.10;99.90;;;;;;5035012;28;20029;-68
2024/04/05 05:04:34;;;;;;;19.08;3.75;;;12.00;99.90;;;;;;5034705;28;20029;-68
2024/04/05 05:07:01;;;;;;;14.63;4.25;;;12.00;99.90;;;;;;5034457;28;20468;-68
2024/04/05 05:09:26;;;;;;;15.02;4.03;;;12.10;99.90;;;;;;5034825;28;20025;-68
2024/04/05 05:11:52;;;;;;;15.52;3.50;;;12.20;99.90;;;;;;5034799;28;20056;-68
2024/04/05 05:14:17;;;;;;;16.90;4.20;;;12.10;99.90;;;;;;5034426;28;20483;-68
2024/04/05 05:16:43;;;;;;;19.33;4.80;;;12.10;99.90;;;;;;5034356;28;20025;-69
2024/04/05 05:19:09;;;;;;;18.17;4.13;;;12.20;99.90;;;;;;5034619;28;20091;-69
2024/04/05 05:21:35;;;;;;;16.40;4.18;;;12.20;99.90;;;;;;5034225;28;20072;-69
2024/04/05 05:24:01;;;;;;;16.50;4.30;;;12.20;99.90;;;;;;5034462;28;20022;-68
2024/04/05 05:26:27;;;;;;;17.23;4.22;;;12.40;99.90;;;;;;5034552;28;20537;-69
2024/04/05 05:28:53;;;;;;;16.02;4.63;;;12.30;99.90;;;;;;5034496;28;20108;-68
2024/04/05 05:31:19;;;;;;;15.13;4.22;;;12.30;99.90;;;;;;5034343;28;20037;-68
2024/04/05 05:33:44;;;;;;;19.92;4.45;;;12.40;99.90;;;;;;5034555;28;20087;-68
2024/04/05 05:36:10;;;;;;;17.30;4.32;;;12.40;99.90;;;;;;5034380;28;20031;-68
2024/04/05 05:38:36;;;;;;;18.77;4.50;;;12.40;99.90;;;;;;5034197;28;20028;-68
2024/04/05 05:41:03;;;;;;;15.68;3.55;;;12.40;99.90;;;;;;5033734;28;20026;-68
2024/04/05 05:43:29;;;;;;;17.70;4.22;;;12.50;99.90;;;;;;5034207;28;20040;-69
2024/04/05 05:45:54;;;;;;;20.40;4.57;;;12.40;99.90;;;;;;5033110;28;20032;-68
2024/04/05 05:48:20;;;;;;;13.45;4.13;;;12.30;99.90;;;;;;5034094;28;20029;-68
2024/04/05 05:50:46;;;;;;;16.33;4.60;;;12.30;99.90;;;;;;5034173;28;20036;-68
2024/04/05 05:53:12;;;;;;;15.65;4.15;;;12.30;99.90;;;;;;5033985;28;20087;-68
2024/04/05 05:55:37;;;;;;;12.85;4.35;;;12.30;99.90;;;;;;5033715;28;20181;-68
2024/04/05 05:58:03;;;;;;;18.02;4.90;;;12.20;99.90;;;;;;5034031;28;20040;-68
2024/04/05 06:00:29;;;;;;;19.52;4.22;;;12.20;99.90;;;;;;5033679;28;20038;-68
2024/04/05 06:02:55;;;;;;;16.33;4.50;;;12.20;99.90;;;;;;5033897;28;20018;-68
2024/04/05 06:05:23;;;;;;;18.90;4.78;;;12.20;99.90;;;;;;5033842;28;20032;-68
2024/04/05 06:07:52;;;;;;;15.50;4.35;;;12.20;99.90;;;;;;5033783;28;20017;-68
2024/04/05 06:10:18;;;;;;;18.00;4.22;;;12.30;99.90;;;;;;5033766;28;20388;-68
2024/04/05 06:12:43;;;;;;;14.40;4.57;;;12.30;99.90;;;;;;5033269;28;20033;-68
2024/04/05 06:15:10;;;;;;;16.58;4.53;;;12.30;99.90;;;;;;5033883;28;20120;-68
2024/04/05 06:17:35;;;;;;;14.52;4.32;;;12.40;99.90;;;;;;5033369;28;20402;-69
2024/04/05 06:20:06;;;;;;;16.13;4.60;;;12.40;99.90;;;;;;5033090;28;20030;-69
2024/04/05 06:22:33;;;;;;;15.77;4.25;;;12.40;99.90;;;;;;5033150;28;20029;-69
2024/04/05 06:24:58;;;;;;;16.13;4.75;;;12.40;99.90;;;;;;5033471;28;20032;-69
2024/04/05 06:27:24;;;;;;;18.52;4.53;;;12.30;99.90;;;;;;5033568;28;20369;-69
2024/04/05 06:29:53;;;;;;;20.75;4.75;;;12.30;99.90;;;;;;5033137;28;20075;-69
2024/04/05 06:32:18;;;;;;;16.30;5.03;;;12.30;99.90;;;;;;5033496;28;20490;-69
2024/04/05 06:34:45;;;;;;;14.20;4.80;;;12.30;99.90;;;;;;5033478;28;20021;-69
2024/04/05 06:37:12;;;;;;;12.57;4.22;;;12.30;99.90;;;;;;5033497;28;20552;-68
2024/04/05 06:39:38;;;;;;;18.13;4.78;;;12.30;99.90;;;;;;5032996;28;20095;-68
2024/04/05 06:42:04;;;;;;;20.65;5.00;;;12.40;99.90;;;;;;5033545;28;20025;-69
2024/04/05 06:44:39;;;;;;;18.77;4.65;;;12.30;99.90;;;;;;5033367;28;20033;-69
2024/04/05 06:47:06;;;;;;;13.65;4.88;;;12.40;99.90;;;;;;5033517;28;20116;-68
2024/04/05 06:49:32;;;;;;;16.95;4.05;;;12.50;99.90;;;;;;5033273;28;20025;-68
2024/04/05 06:52:00;;;;;;;14.02;4.88;;;12.70;99.90;;;;;;5032793;28;20422;-69
2024/04/05 06:54:27;;;;;;;14.40;4.72;;;12.80;99.90;;;;;;5033277;28;20025;-69
2024/04/05 06:56:52;;;;;;;15.75;4.35;;;12.90;99.90;;;;;;5036054;28;20025;-69
2024/04/05 06:59:18;;;;;;;18.95;4.40;;;12.90;99.90;;;;;;5037366;28;20029;-69
2024/04/05 07:01:43;;;;;;;17.00;4.30;;;13.20;99.90;;;;;;5037492;28;20113;-69
2024/04/05 07:04:11;;;;;;;15.25;4.63;;;13.70;99.90;;;;;;5036809;28;20048;-69
2024/04/05 07:06:36;;;;;;;12.30;4.50;;;13.90;99.90;;;;;;5037341;28;20392;-70
2024/04/05 07:09:04;;;;;;;14.18;3.90;;;14.30;99.90;;;;;;5036847;28;20029;-69
2024/04/05 07:11:30;;;;;;;12.35;3.72;;;;;;;;;;5036952;28;20152;-70
2024/04/05 07:13:57;;;;;;;12.95;3.85;;;16.80;99.90;;;;;;5036553;28;20056;-70
2024/04/05 07:16:23;;;;;;;10.45;3.08;;;17.50;94.40;;;;;;5036877;28;20025;-70
2024/04/05 07:18:50;;;;;;;10.48;2.90;;;17.90;6.00;;;;;;5036305;28;20022;-71
2024/04/05 07:21:16;;;;;;;9.60;2.85;;;18.50;1.00;;;;;;5037038;28;20040;-70
2024/04/05 07:23:41;;;;;;;8.25;2.83;;;18.30;1.00;;;;;;5051848;28;20020;-70
2024/04/05 07:26:09;;;;;;;11.32;2.95;;;18.10;1.00;;;;;;5046350;28;20071;-70
2024/04/05 07:28:35;;;;;;;9.02;3.08;;;17.80;1.00;;;;;;5038611;28;20036;-70
2024/04/05 07:31:00;;;;;;;8.65;2.83;;;18.10;1.00;;;;;;5046359;28;20029;-69
2024/04/05 07:33:26;;;;;;;11.25;2.85;;;17.80;1.00;;;;;;5045034;28;20394;-70
2024/04/05 07:35:55;;;;;;;13.80;3.10;;;17.50;1.00;;;;;;5050036;28;20048;-69
2024/04/05 07:38:21;;;;;;;11.30;3.10;;;17.50;1.00;;;;;;5051560;28;20017;-70
2024/04/05 07:40:47;;;;;;;8.55;3.35;;;17.70;1.00;;;;;;5051424;28;20033;-70
2024/04/05 07:43:12;;;;;;;6.55;2.42;;;18.50;1.00;;;;;;5053299;28;20537;-70
2024/04/05 07:45:38;;;;;;;7.47;2.67;;;19.10;1.00;;;;;;5052625;28;20029;-70
2024/04/05 07:48:03;;;;;;;7.75;2.42;;;18.90;99.90;;;;;;5043096;28;20068;-70
2024/04/05 07:50:29;;;;;;;7.53;2.60;;;18.40;1.00;;;;;;5045311;28;20107;-70
2024/04/05 07:52:55;;;;;;;8.35;2.80;;;18.00;1.00;;;;;;5044397;28;20033;-69
2024/04/05 07:55:20;;;;;;;7.85;2.47;;;18.10;1.00;;;;;;5052720;28;20029;-70
2024/04/05 07:57:46;;;;;;;10.13;2.55;;;18.70;1.00;;;;;;5051112;28;20029;-69
2024/04/05 08:00:15;;;;;;;10.98;2.88;;;18.70;99.90;;;;;;5035910;28;20125;-69
2024/04/05 08:02:46;;;;;;;11.50;2.63;;;18.50;99.90;;;;;;5048149;28;20060;-69
2024/04/05 08:05:12;;;;;;;10.88;2.65;;;17.60;1.00;;;;;;5039129;28;20112;-70
2024/04/05 08:07:37;;;;;;;8.30;2.67;;;17.40;1.00;;;;;;5051549;28;20518;-69
2024/04/05 08:10:04;;;;;;;9.98;2.90;;;17.00;1.00;;;;;;5042433;28;20483;-69
2024/04/05 08:12:29;;;;;;;10.82;2.92;;;16.60;1.00;;;;;;5044923;28;20044;-69
2024/04/05 08:14:55;;;;;;;11.85;2.83;;;16.20;1.20;;;;;;5049748;28;20029;-69
2024/04/05 08:17:21;;;;;;;10.02;2.60;;;16.10;15.90;;;;;;5052632;28;20025;-69
2024/04/05 08:19:50;;;;;;;6.40;2.50;;;16.10;9.20;;;;;;5040555;28;20106;-69
2024/04/05 08:22:15;;;;;;;10.68;2.88;;;16.00;25.80;;;;;;5046807;28;20024;-69
2024/04/05 08:24:41;;;;;;;12.18;2.40;;;16.20;17.00;;;;;;5047697;28;20116;-69
2024/04/05 08:27:06;;;;;;;10.50;2.58;;;16.20;14.60;;;;;;5036510;28;20451;-69
2024/04/05 08:29:32;;;;;;;10.88;2.92;;;16.30;19.60;;;;;;5051953;28;20038;-69
2024/04/05 08:31:58;;;;;;;7.82;2.40;;;16.20;23.50;;;;;;5041926;28;20028;-69
2024/04/05 08:34:23;;;;;;;7.35;2.17;;;16.20;23.30;;;;;;5044540;28;20044;-70
2024/04/05 08:36:49;;;;;;;6.68;2.28;;;16.20;9.40;;;;;;5048483;28;20122;-69
2024/04/05 08:39:17;;;;;;;4.47;2.05;;;16.20;17.00;;;;;;5038436;28;20041;-69
2024/04/05 08:41:44;;;;;;;4.38;1.60;;;16.30;20.80;;;;;;5050851;28;20502;-69
2024/04/05 08:44:12;;;;;;;9.25;2.42;;;16.40;13.70;;;;;;5043607;28;20029;-69
2024/04/05 08:46:39;;;;;;;6.75;2.17;;;16.50;1.00;;;;;;5041113;28;20028;-69
2024/04/05 08:49:05;;;;;;;8.25;2.67;;;16.50;1.00;;;;;;5050356;28;20021;-69
2024/04/05 08:51:32;;;;;;;5.68;2.10;;;16.60;8.00;;;;;;5038469;28;20626;-69
2024/04/05 08:53:58;;;;;;;5.65;2.28;;;17.00;1.00;;;;;;5049856;28;20051;-69
2024/04/05 08:56:26;;;;;;;8.25;2.40;;;17.10;1.00;;;;;;5034567;28;20064;-69
2024/04/05 08:58:52;;;;;;;9.30;2.58;;;17.30;1.00;;;;;;5041149;28;20079;-69
2024/04/05 09:01:19;;;;;;;7.90;2.33;;;17.20;1.00;;;;;;5042491;28;20033;-70
2024/04/05 09:03:48;;;;;;;7.15;2.28;;;17.40;1.00;;;;;;5045816;28;20136;-70
2024/04/05 09:06:14;;;;;;;6.75;2.13;;;17.10;1.00;;;;;;5043354;28;20029;-69
2024/04/05 09:08:45;;;;;;;4.90;1.90;;;17.10;1.00;;;;;;5042494;28;20455;-69
2024/04/05 09:11:19;;;;;;;6.72;2.15;;;17.10;1.00;;;;;;5035989;28;20038;-70
2024/04/05 09:13:57;;;;;;;6.00;2.28;;;17.20;1.00;;;;;;5037842;28;20039;-69
2024/04/05 09:16:25;;;;;;;5.78;1.80;;;17.20;1.00;;;;;;5034569;28;20544;-69
2024/04/05 09:18:51;;;;;;;6.90;2.13;;;17.40;1.00;;;;;;5040189;28;20124;-69
2024/04/05 09:21:18;;;;;;;5.88;2.17;;;17.30;1.00;;;;;;5050237;28;20446;-69
2024/04/05 09:23:48;;;;;;;7.55;1.83;;;17.30;1.00;;;;;;5038563;28;20021;-70
2024/04/05 09:26:19;;;;;;;5.68;2.03;;;17.30;1.00;;;;;;5031853;28;20033;-69
2024/04/05 09:28:46;;;;;;;5.32;2.40;;;17.20;1.00;;;;;;5040968;28;20025;-69
2024/04/05 09:31:18;;;;;;;5.18;2.15;;;17.20;1.00;;;;;;5050578;28;20048;-70
2024/04/05 09:33:44;;;;;;;8.50;2.33;;;17.10;1.00;;;;;;5049668;28;20048;-70
2024/04/05 09:36:13;;;;;;;6.05;2.17;;;17.00;1.00;;;;;;5041881;28;20029;-69
2024/04/05 09:38:40;;;;;;;7.65;2.30;;;16.90;1.00;;;;;;5041500;28;20842;-69
2024/04/05 09:41:07;;;;;;;6.85;2.00;;;17.00;1.00;;;;;;5048034;28;20037;-69
2024/04/05 09:43:35;;;;;;;7.13;2.35;;;16.90;1.00;;;;;;5040526;28;20102;-70
2024/04/05 09:46:04;;;;;;;7.30;2.15;;;16.80;1.00;;;;;;5046413;28;20024;-69
2024/04/05 09:48:32;;;;;;;5.03;2.35;;;16.80;1.00;;;;;;5033667;28;20029;-70
2024/04/05 09:51:03;;;;;;;6.35;2.22;;;16.80;1.00;;;;;;5032993;28;20033;-70
2024/04/05 09:53:33;;;;;;;6.38;2.47;;;16.80;1.00;;;;;;5033705;28;20056;-69
2024/04/05 09:56:02;;;;;;;6.22;2.45;;;17.00;1.00;;;;;;5034007;28;20475;-71
2024/04/05 09:58:28;;;;;;;8.10;2.10;;;17.20;1.00;;;;;;5033930;28;20120;-70
2024/04/05 10:00:54;;;;;;;9.40;2.10;;;17.40;1.00;;;;;;5033222;28;20079;-67
2024/04/05 10:03:20;;;;;;;7.38;2.13;;;17.60;1.00;;;;;;5033413;28;20510;-67
2024/04/05 10:05:46;;;;;;;9.60;2.67;;;17.70;1.00;;;;;;5033819;28;20108;-68
2024/04/05 10:08:16;;;;;;;6.20;1.95;;;17.90;1.00;;;;;;5033451;28;20539;-70
2024/04/05 10:10:42;;;;;;;6.72;2.05;;;18.10;99.90;;;;;;5033750;28;20029;-68
2024/04/05 10:13:15;;;;;;;9.07;2.30;;;18.30;99.90;;;;;;5033827;28;20036;-69
2024/04/05 10:15:54;;;;;;;5.32;2.03;;;18.20;99.90;;;;;;5033265;28;20064;-67
2024/04/05 10:18:28;;;;;;;6.85;2.10;;;18.10;99.90;;;;;;5033734;28;20498;-68
2024/04/05 10:21:12;;;;;;;5.10;2.00;;;18.10;99.90;;;;;;5033308;28;20061;-68
2024/04/05 10:23:39;;;;;;;6.18;1.92;;;18.20;99.90;;;;;;5033894;28;20489;-68
2024/04/05 10:26:10;;;;;;;4.97;1.80;;;18.10;99.90;;;;;;5033374;28;20112;-68
2024/04/05 10:28:37;;;;;;;7.20;2.30;;;18.10;99.90;;;;;;5033409;28;20033;-67
2024/04/05 10:31:03;;;;;;;5.53;2.08;;;18.10;99.90;;;;;;5032928;28;20029;-68
2024/04/05 10:33:29;;;;;;;4.10;1.90;;;18.10;99.90;;;;;;5032985;28;20033;-69
2024/04/05 10:35:59;;;;;;;5.80;1.80;;;18.00;99.90;;;;;;5033347;28;20052;-68
2024/04/05 10:38:27;;;;;;;5.25;1.90;;;17.90;99.90;;;;;;5033088;28;20036;-68
2024/04/05 10:40:59;;;;;;;5.75;1.90;;;17.80;99.90;;;;;;5033324;28;20041;-69
2024/04/05 10:43:25;;;;;;;5.05;1.80;;;17.80;99.90;;;;;;5033334;28;20537;-69
2024/04/05 10:45:53;;;;;;;4.40;1.85;;;17.80;99.90;;;;;;5032878;28;20120;-68
2024/04/05 10:48:19;;;;;;;6.68;1.95;;;17.80;99.90;;;;;;5033292;28;20021;-68
2024/04/05 10:50:45;;;;;;;4.65;1.73;;;17.80;99.90;;;;;;5033088;28;20029;-68
2024/04/05 10:53:16;;;;;;;7.22;1.95;;;17.80;99.90;;;;;;5033254;28;20438;-69
2024/04/05 10:55:43;;;;;;;4.68;2.22;;;17.70;99.90;;;;;;5033165;28;20052;-68
2024/04/05 10:58:10;;;;;;;4.50;1.90;;;17.50;99.90;;;;;;5033047;28;20022;-68
2024/04/05 11:00:36;;;;;;;7.10;2.38;;;17.50;1.00;;;;;;5032665;28;20036;-68
2024/04/05 11:03:03;;;;;;;9.65;2.17;;;17.40;1.00;;;;;;5033023;28;20033;-69
2024/04/05 11:05:29;;;;;;;6.88;2.05;;;17.30;1.00;;;;;;5033137;28;20025;-68
2024/04/05 11:07:59;;;;;;;6.72;2.05;;;17.20;1.00;;;;;;5033119;28;20033;-68
2024/04/05 11:10:30;;;;;;;4.63;1.98;;;17.30;1.00;;;;;;5032505;28;20068;-68
2024/04/05 11:12:56;;;;;;;8.60;2.10;;;17.30;1.00;;;;;;5032767;28;20037;-69
2024/04/05 11:15:22;;;;;;;4.65;2.30;;;17.40;1.00;;;;;;5033308;28;20536;-68
2024/04/05 11:18:05;;;;;;;6.90;2.13;;;17.40;1.00;;;;;;5032540;28;20025;-68
2024/04/05 11:20:32;;;;;;;5.07;1.98;;;17.40;1.00;;;;;;5032472;28;20029;-68
2024/04/05 11:23:02;;;;;;;6.10;2.10;;;17.40;1.00;;;;;;5032933;28;20491;-68
2024/04/05 11:25:29;;;;;;;8.95;2.45;;;17.60;1.00;;;;;;5032499;28;20024;-68
2024/04/05 11:27:55;;;;;;;6.95;1.83;;;17.60;1.00;;;;;;5032831;28;20493;-68
2024/04/05 11:30:21;;;;;;;4.68;1.45;;;17.80;1.00;;;;;;5032783;28;20029;-68
2024/04/05 11:32:46;;;;;;;5.90;1.88;;;17.70;99.90;;;;;;5032420;28;20030;-69
2024/04/05 11:35:12;;;;;;;7.93;2.30;;;17.70;99.90;;;;;;5032903;28;20083;-68
2024/04/05 11:37:40;;;;;;;7.93;2.15;;;17.60;99.90;;;;;;5032522;28;20025;-68
2024/04/05 11:40:09;;;;;;;5.32;2.03;;;17.50;99.90;;;;;;5032403;28;20466;-68
2024/04/05 11:42:35;;;;;;;4.80;2.15;;;17.50;99.90;;;;;;5033173;28;20108;-68
2024/04/05 11:45:01;;;;;;;5.57;2.28;;;17.50;99.90;;;;;;5036348;28;20026;-68
2024/04/05 11:47:27;;;;;;;8.23;2.05;;;17.60;99.90;;;;;;5036008;28;20083;-69
2024/04/05 11:49:53;;;;;;;4.20;1.60;;;17.70;99.90;;;;;;5036351;28;20497;-70
2024/04/05 11:52:18;;;;;;;4.63;1.85;;;17.70;99.90;;;;;;5035890;28;20121;-69
2024/04/05 11:54:46;;;;;;;5.68;1.80;;;17.70;99.90;;;;;;5036192;28;20086;-70
2024/04/05 11:57:14;;;;;;;9.85;2.97;;;17.80;99.90;;;;;;5036349;28;20550;-69
2024/04/05 11:59:41;;;;;;;6.10;2.03;;;17.80;99.90;;;;;;5036176;28;20030;-69
2024/04/05 12:02:08;;;;;;;5.10;2.63;;;17.70;99.90;;;;;;5036106;28;20025;-69
2024/04/05 12:04:33;;;;;;;7.00;2.00;;;17.80;99.90;;;;;;5036035;28;20440;-69
2024/04/05 12:06:59;;;;;;;6.43;1.90;;;17.90;99.90;;;;;;5036010;28;20140;-69
2024/04/05 12:09:25;;;;;;;7.07;2.17;;;17.90;99.90;;;;;;5035622;28;20484;-69
2024/04/05 12:11:50;;;;;;;5.10;1.88;;;17.90;99.90;;;;;;5035593;28;20061;-69
2024/04/05 12:14:16;;;;;;;7.63;2.13;;;17.80;99.90;;;;;;5036017;28;20115;-69
2024/04/05 12:16:41;;;;;;;6.22;1.98;;;17.80;99.90;;;;;;5035929;28;20028;-69
2024/04/05 12:19:07;;;;;;;5.47;1.92;;;17.80;99.90;;;;;;5035433;28;20021;-69
2024/04/05 12:21:33;;;;;;;3.78;1.80;;;17.80;99.90;;;;;;5035408;28;20373;-69
2024/04/05 12:23:59;;;;;;;4.10;1.90;;;17.80;99.90;;;;;;5035373;28;20132;-69
2024/04/05 12:26:24;;;;;;;7.82;2.25;;;17.80;99.90;;;;;;5035655;28;20072;-69
2024/04/05 12:28:50;;;;;;;7.40;1.70;;;17.70;99.90;;;;;;5035669;28;20029;-69
2024/04/05 12:31:16;;;;;;;4.38;2.28;;;17.90;99.90;;;;;;5035613;28;20116;-69
2024/04/05 12:33:42;;;;;;;5.47;1.90;;;18.10;99.90;;;;;;5035087;28;20021;-69
2024/04/05 12:36:09;;;;;;;6.07;2.45;;;18.30;99.90;;;;;;5035349;28;20032;-69
2024/04/05 12:38:44;;;;;;;4.05;2.08;;;18.60;99.90;;;;;;5035091;28;20029;-69